Newtown, Indiana
Current Conditions -  °F | °C
As of 7:19 PM on Monday 24 Nov 2014 (Local Time) from KLAF Reporting Station
Overcast Overcast  
Wind Chill: -6°   Ceiling: 2600
Heat Index:   Visibility: 10mi
Dew Point: -3°   Wind: 22mph
Humidity: 73%   Direction: 250°WSW
Pressure: 29.78"   Gusts: 32mph
Location:  40.2°N, 87.15°W
Report Text: KLAF 250019Z 25019G28KT 10SM BKN026 OVC037 01/M03 A2978 RMK AO2 PK WND 25028/0019 T00111033
Loading
Personal Weather Stations






























Interactive Weather Map New forecast layout! Learn more

10-Day Weather Forecast

Advertisements
Track Severe Weather on mobile